sensor_id;sensor_type;location;lat;lon;timestamp;temperature;humidity
68977;SHT31;56029;52.568;13.588;2023-01-08T00:02:09;7.85;90.90
68977;SHT31;56029;52.568;13.588;2023-01-08T00:04:34;7.84;90.99
68977;SHT31;56029;52.568;13.588;2023-01-08T00:07:00;7.81;90.95
68977;SHT31;56029;52.568;13.588;2023-01-08T00:09:26;7.75;91.15
68977;SHT31;56029;52.568;13.588;2023-01-08T00:11:51;7.67;91.21
68977;SHT31;56029;52.568;13.588;2023-01-08T00:14:17;7.66;91.66
68977;SHT31;56029;52.568;13.588;2023-01-08T00:16:42;7.60;91.44
68977;SHT31;56029;52.568;13.588;2023-01-08T00:19:10;7.53;91.65
68977;SHT31;56029;52.568;13.588;2023-01-08T00:21:36;7.44;91.89
68977;SHT31;56029;52.568;13.588;2023-01-08T00:24:01;7.42;91.91
68977;SHT31;56029;52.568;13.588;2023-01-08T00:26:27;7.34;92.09
68977;SHT31;56029;52.568;13.588;2023-01-08T00:28:53;7.32;92.04
68977;SHT31;56029;52.568;13.588;2023-01-08T00:31:18;7.30;92.00
68977;SHT31;56029;52.568;13.588;2023-01-08T00:33:44;7.29;92.15
68977;SHT31;56029;52.568;13.588;2023-01-08T00:36:12;7.23;92.44
68977;SHT31;56029;52.568;13.588;2023-01-08T00:38:38;7.19;92.28
68977;SHT31;56029;52.568;13.588;2023-01-08T00:41:05;7.18;92.44
68977;SHT31;56029;52.568;13.588;2023-01-08T00:43:31;7.18;92.39
68977;SHT31;56029;52.568;13.588;2023-01-08T00:45:56;7.09;92.66
68977;SHT31;56029;52.568;13.588;2023-01-08T00:48:22;7.02;92.89
68977;SHT31;56029;52.568;13.588;2023-01-08T00:50:49;6.99;93.12
68977;SHT31;56029;52.568;13.588;2023-01-08T00:53:15;6.98;93.03
68977;SHT31;56029;52.568;13.588;2023-01-08T00:55:41;6.95;93.25
68977;SHT31;56029;52.568;13.588;2023-01-08T00:58:06;6.91;93.18
68977;SHT31;56029;52.568;13.588;2023-01-08T01:00:32;6.85;93.42
68977;SHT31;56029;52.568;13.588;2023-01-08T01:02:57;6.78;93.66
68977;SHT31;56029;52.568;13.588;2023-01-08T01:05:23;6.73;93.88
68977;SHT31;56029;52.568;13.588;2023-01-08T01:07:48;6.64;94.07
68977;SHT31;56029;52.568;13.588;2023-01-08T01:10:14;6.67;94.19
68977;SHT31;56029;52.568;13.588;2023-01-08T01:12:41;6.64;94.27
68977;SHT31;56029;52.568;13.588;2023-01-08T01:15:09;6.58;94.34
68977;SHT31;56029;52.568;13.588;2023-01-08T01:17:37;6.57;94.31
68977;SHT31;56029;52.568;13.588;2023-01-08T01:20:04;6.54;94.60
68977;SHT31;56029;52.568;13.588;2023-01-08T01:22:30;6.50;94.77
68977;SHT31;56029;52.568;13.588;2023-01-08T01:24:56;6.48;94.85
68977;SHT31;56029;52.568;13.588;2023-01-08T01:27:24;6.43;94.88
68977;SHT31;56029;52.568;13.588;2023-01-08T01:29:50;6.40;95.11
68977;SHT31;56029;52.568;13.588;2023-01-08T01:32:15;6.37;95.37
68977;SHT31;56029;52.568;13.588;2023-01-08T01:34:41;6.37;95.19
68977;SHT31;56029;52.568;13.588;2023-01-08T01:37:06;6.38;95.28
68977;SHT31;56029;52.568;13.588;2023-01-08T01:39:32;6.29;95.41
68977;SHT31;56029;52.568;13.588;2023-01-08T01:41:57;6.27;95.53
68977;SHT31;56029;52.568;13.588;2023-01-08T01:44:43;6.20;95.63
68977;SHT31;56029;52.568;13.588;2023-01-08T01:47:24;6.17;95.86
68977;SHT31;56029;52.568;13.588;2023-01-08T01:52:51;6.09;96.22
68977;SHT31;56029;52.568;13.588;2023-01-08T01:55:19;6.07;96.18
68977;SHT31;56029;52.568;13.588;2023-01-08T01:57:49;6.01;96.32
68977;SHT31;56029;52.568;13.588;2023-01-08T02:00:17;5.99;96.37
68977;SHT31;56029;52.568;13.588;2023-01-08T02:02:43;5.95;96.53
68977;SHT31;56029;52.568;13.588;2023-01-08T02:05:08;5.86;96.66
68977;SHT31;56029;52.568;13.588;2023-01-08T02:07:43;5.82;96.74
68977;SHT31;56029;52.568;13.588;2023-01-08T02:10:28;5.81;96.92
68977;SHT31;56029;52.568;13.588;2023-01-08T02:13:16;5.74;97.06
68977;SHT31;56029;52.568;13.588;2023-01-08T02:15:57;5.69;97.12
68977;SHT31;56029;52.568;13.588;2023-01-08T02:18:39;5.68;97.43
68977;SHT31;56029;52.568;13.588;2023-01-08T02:21:10;5.64;97.44
68977;SHT31;56029;52.568;13.588;2023-01-08T02:24:19;5.59;97.46
68977;SHT31;56029;52.568;13.588;2023-01-08T02:26:43;5.52;97.63
68977;SHT31;56029;52.568;13.588;2023-01-08T02:29:17;5.50;97.90
68977;SHT31;56029;52.568;13.588;2023-01-08T02:31:44;5.41;98.05
68977;SHT31;56029;52.568;13.588;2023-01-08T02:34:11;5.38;98.17
68977;SHT31;56029;52.568;13.588;2023-01-08T02:36:40;5.31;98.26
68977;SHT31;56029;52.568;13.588;2023-01-08T02:44:28;5.17;98.66
68977;SHT31;56029;52.568;13.588;2023-01-08T02:46:57;5.12;98.66
68977;SHT31;56029;52.568;13.588;2023-01-08T02:49:27;5.06;98.83
68977;SHT31;56029;52.568;13.588;2023-01-08T02:51:55;5.01;98.93
68977;SHT31;56029;52.568;13.588;2023-01-08T02:54:26;4.92;99.11
68977;SHT31;56029;52.568;13.588;2023-01-08T02:57:06;4.89;99.37
68977;SHT31;56029;52.568;13.588;2023-01-08T02:59:32;4.86;99.47
68977;SHT31;56029;52.568;13.588;2023-01-08T03:02:00;4.83;99.46
68977;SHT31;56029;52.568;13.588;2023-01-08T03:04:30;4.78;99.62
68977;SHT31;56029;52.568;13.588;2023-01-08T03:06:57;4.73;99.75
68977;SHT31;56029;52.568;13.588;2023-01-08T03:09:22;4.71;99.80
68977;SHT31;56029;52.568;13.588;2023-01-08T03:12:34;4.65;99.97
68977;SHT31;56029;52.568;13.588;2023-01-08T03:14:49;4.61;99.99
68977;SHT31;56029;52.568;13.588;2023-01-08T03:17:24;4.55;99.99
68977;SHT31;56029;52.568;13.588;2023-01-08T03:19:59;4.51;99.99
68977;SHT31;56029;52.568;13.588;2023-01-08T03:22:27;4.54;99.99
68977;SHT31;56029;52.568;13.588;2023-01-08T03:24:56;4.54;99.99
68977;SHT31;56029;52.568;13.588;2023-01-08T03:27:27;4.55;99.99
68977;SHT31;56029;52.568;13.588;2023-01-08T03:29:54;4.54;99.99
68977;SHT31;56029;52.568;13.588;2023-01-08T03:32:22;4.55;99.99
68977;SHT31;56029;52.568;13.588;2023-01-08T03:34:51;4.62;99.99
68977;SHT31;56029;52.568;13.588;2023-01-08T03:37:21;4.58;99.99
68977;SHT31;56029;52.568;13.588;2023-01-08T03:40:04;4.57;99.99
68977;SHT31;56029;52.568;13.588;2023-01-08T03:42:31;4.57;99.99
68977;SHT31;56029;52.568;13.588;2023-01-08T03:44:58;4.57;99.99
68977;SHT31;56029;52.568;13.588;2023-01-08T03:47:24;4.55;99.99
68977;SHT31;56029;52.568;13.588;2023-01-08T03:49:51;4.54;99.99
68977;SHT31;56029;52.568;13.588;2023-01-08T03:52:23;4.57;99.99
68977;SHT31;56029;52.568;13.588;2023-01-08T03:54:50;4.55;99.99
68977;SHT31;56029;52.568;13.588;2023-01-08T03:57:16;4.55;99.99
68977;SHT31;56029;52.568;13.588;2023-01-08T03:59:41;4.54;99.99
68977;SHT31;56029;52.568;13.588;2023-01-08T04:02:07;4.57;99.99
68977;SHT31;56029;52.568;13.588;2023-01-08T04:04:33;4.58;99.99
68977;SHT31;56029;52.568;13.588;2023-01-08T04:06:59;4.59;99.99
68977;SHT31;56029;52.568;13.588;2023-01-08T04:09:24;4.58;99.99
68977;SHT31;56029;52.568;13.588;2023-01-08T04:11:50;4.58;99.99
68977;SHT31;56029;52.568;13.588;2023-01-08T04:14:15;4.61;99.99
68977;SHT31;56029;52.568;13.588;2023-01-08T04:16:41;4.58;99.99
68977;SHT31;56029;52.568;13.588;2023-01-08T04:19:06;4.55;99.99
68977;SHT31;56029;52.568;13.588;2023-01-08T04:21:32;4.52;99.99
68977;SHT31;56029;52.568;13.588;2023-01-08T04:23:57;4.52;99.99
68977;SHT31;56029;52.568;13.588;2023-01-08T04:26:23;4.48;99.99
68977;SHT31;56029;52.568;13.588;2023-01-08T04:28:48;4.48;99.99
68977;SHT31;56029;52.568;13.588;2023-01-08T04:31:14;4.44;99.99
68977;SHT31;56029;52.568;13.588;2023-01-08T04:33:39;4.47;99.99
68977;SHT31;56029;52.568;13.588;2023-01-08T04:36:05;4.47;99.99
68977;SHT31;56029;52.568;13.588;2023-01-08T04:38:30;4.47;99.99
68977;SHT31;56029;52.568;13.588;2023-01-08T04:41:00;4.44;99.99
68977;SHT31;56029;52.568;13.588;2023-01-08T04:43:27;4.40;99.99
68977;SHT31;56029;52.568;13.588;2023-01-08T04:45:57;4.37;99.99
68977;SHT31;56029;52.568;13.588;2023-01-08T04:48:22;4.33;99.99
68977;SHT31;56029;52.568;13.588;2023-01-08T04:50:48;4.28;99.99
68977;SHT31;56029;52.568;13.588;2023-01-08T04:53:15;4.30;99.99
68977;SHT31;56029;52.568;13.588;2023-01-08T04:55:41;4.30;99.99
68977;SHT31;56029;52.568;13.588;2023-01-08T04:58:06;4.25;99.99
68977;SHT31;56029;52.568;13.588;2023-01-08T05:00:32;4.22;99.99
68977;SHT31;56029;52.568;13.588;2023-01-08T05:02:58;4.17;99.99
68977;SHT31;56029;52.568;13.588;2023-01-08T05:05:24;4.11;99.99
68977;SHT31;56029;52.568;13.588;2023-01-08T05:07:49;4.04;99.99
68977;SHT31;56029;52.568;13.588;2023-01-08T05:10:15;4.04;99.99
68977;SHT31;56029;52.568;13.588;2023-01-08T05:12:40;4.03;99.99
68977;SHT31;56029;52.568;13.588;2023-01-08T05:15:07;4.01;99.99
68977;SHT31;56029;52.568;13.588;2023-01-08T05:17:33;4.06;99.99
68977;SHT31;56029;52.568;13.588;2023-01-08T05:19:58;4.08;99.99
68977;SHT31;56029;52.568;13.588;2023-01-08T05:22:24;4.14;99.99
68977;SHT31;56029;52.568;13.588;2023-01-08T05:24:49;4.10;99.99
68977;SHT31;56029;52.568;13.588;2023-01-08T05:27:15;4.03;99.99
68977;SHT31;56029;52.568;13.588;2023-01-08T05:29:40;4.01;99.99
68977;SHT31;56029;52.568;13.588;2023-01-08T05:32:13;3.96;99.99
68977;SHT31;56029;52.568;13.588;2023-01-08T05:34:39;3.93;99.99
68977;SHT31;56029;52.568;13.588;2023-01-08T05:37:05;3.87;99.99
68977;SHT31;56029;52.568;13.588;2023-01-08T05:39:30;3.83;99.99
68977;SHT31;56029;52.568;13.588;2023-01-08T05:41:56;3.76;99.99
68977;SHT31;56029;52.568;13.588;2023-01-08T05:44:21;3.70;99.99
68977;SHT31;56029;52.568;13.588;2023-01-08T05:46:47;3.69;99.99
68977;SHT31;56029;52.568;13.588;2023-01-08T05:49:13;3.72;99.99
68977;SHT31;56029;52.568;13.588;2023-01-08T05:51:38;3.75;99.99
68977;SHT31;56029;52.568;13.588;2023-01-08T05:54:04;3.79;99.99
68977;SHT31;56029;52.568;13.588;2023-01-08T05:56:29;3.86;99.99
68977;SHT31;56029;52.568;13.588;2023-01-08T05:58:55;3.97;99.99
68977;SHT31;56029;52.568;13.588;2023-01-08T06:01:20;4.07;99.99
68977;SHT31;56029;52.568;13.588;2023-01-08T06:03:46;4.16;99.99
68977;SHT31;56029;52.568;13.588;2023-01-08T06:06:12;4.25;99.99
68977;SHT31;56029;52.568;13.588;2023-01-08T06:08:38;4.36;99.99
68977;SHT31;56029;52.568;13.588;2023-01-08T06:11:06;4.47;99.99
68977;SHT31;56029;52.568;13.588;2023-01-08T06:13:33;4.55;99.99
68977;SHT31;56029;52.568;13.588;2023-01-08T06:15:59;4.59;99.99
68977;SHT31;56029;52.568;13.588;2023-01-08T06:18:26;4.69;99.99
68977;SHT31;56029;52.568;13.588;2023-01-08T06:20:52;4.75;99.99
68977;SHT31;56029;52.568;13.588;2023-01-08T06:23:17;4.79;99.99
68977;SHT31;56029;52.568;13.588;2023-01-08T06:25:43;4.86;99.99
68977;SHT31;56029;52.568;13.588;2023-01-08T06:28:09;4.93;99.93
68977;SHT31;56029;52.568;13.588;2023-01-08T06:30:34;5.03;99.97
68977;SHT31;56029;52.568;13.588;2023-01-08T06:35:27;5.09;99.55
68977;SHT31;56029;52.568;13.588;2023-01-08T06:37:54;5.13;99.43
68977;SHT31;56029;52.568;13.588;2023-01-08T06:40:20;5.16;99.36
68977;SHT31;56029;52.568;13.588;2023-01-08T06:42:46;5.22;99.04
68977;SHT31;56029;52.568;13.588;2023-01-08T06:45:12;5.24;98.82
68977;SHT31;56029;52.568;13.588;2023-01-08T06:47:37;5.28;98.55
68977;SHT31;56029;52.568;13.588;2023-01-08T06:50:03;5.34;98.48
68977;SHT31;56029;52.568;13.588;2023-01-08T06:52:30;5.36;98.39
68977;SHT31;56029;52.568;13.588;2023-01-08T06:54:56;5.37;98.26
68977;SHT31;56029;52.568;13.588;2023-01-08T06:57:21;5.40;98.09
68977;SHT31;56029;52.568;13.588;2023-01-08T06:59:47;5.43;98.05
68977;SHT31;56029;52.568;13.588;2023-01-08T07:02:13;5.43;97.96
68977;SHT31;56029;52.568;13.588;2023-01-08T07:04:39;5.44;97.93
68977;SHT31;56029;52.568;13.588;2023-01-08T07:07:05;5.45;97.89
68977;SHT31;56029;52.568;13.588;2023-01-08T07:09:33;5.48;97.77
68977;SHT31;56029;52.568;13.588;2023-01-08T07:11:59;5.50;97.74
68977;SHT31;56029;52.568;13.588;2023-01-08T07:14:24;5.51;97.61
68977;SHT31;56029;52.568;13.588;2023-01-08T07:16:50;5.54;97.39
68977;SHT31;56029;52.568;13.588;2023-01-08T07:19:15;5.59;97.37
68977;SHT31;56029;52.568;13.588;2023-01-08T07:21:41;5.61;97.28
68977;SHT31;56029;52.568;13.588;2023-01-08T07:24:06;5.64;97.27
68977;SHT31;56029;52.568;13.588;2023-01-08T07:26:32;5.66;96.82
68977;SHT31;56029;52.568;13.588;2023-01-08T07:28:58;5.72;96.69
68977;SHT31;56029;52.568;13.588;2023-01-08T07:31:24;5.74;96.64
68977;SHT31;56029;52.568;13.588;2023-01-08T07:33:49;5.78;96.63
68977;SHT31;56029;52.568;13.588;2023-01-08T07:36:15;5.82;96.40
68977;SHT31;56029;52.568;13.588;2023-01-08T07:38:42;5.86;96.02
68977;SHT31;56029;52.568;13.588;2023-01-08T07:41:07;5.91;96.01
68977;SHT31;56029;52.568;13.588;2023-01-08T07:43:33;5.92;95.86
68977;SHT31;56029;52.568;13.588;2023-01-08T07:46:02;5.96;95.66
68977;SHT31;56029;52.568;13.588;2023-01-08T07:48:28;6.01;95.83
68977;SHT31;56029;52.568;13.588;2023-01-08T07:50:59;6.06;95.24
68977;SHT31;56029;52.568;13.588;2023-01-08T07:53:25;6.15;95.32
68977;SHT31;56029;52.568;13.588;2023-01-08T07:55:50;6.12;95.12
68977;SHT31;56029;52.568;13.588;2023-01-08T07:58:16;6.19;95.44
68977;SHT31;56029;52.568;13.588;2023-01-08T08:00:41;6.22;95.46
68977;SHT31;56029;52.568;13.588;2023-01-08T08:03:08;6.24;95.41
68977;SHT31;56029;52.568;13.588;2023-01-08T08:05:35;6.29;95.33
68977;SHT31;56029;52.568;13.588;2023-01-08T08:08:06;6.33;95.33
68977;SHT31;56029;52.568;13.588;2023-01-08T08:10:32;6.36;95.49
68977;SHT31;56029;52.568;13.588;2023-01-08T08:12:57;6.40;95.37
68977;SHT31;56029;52.568;13.588;2023-01-08T08:15:23;6.43;95.94
68977;SHT31;56029;52.568;13.588;2023-01-08T08:17:48;6.45;95.94
68977;SHT31;56029;52.568;13.588;2023-01-08T08:20:14;6.47;95.84
68977;SHT31;56029;52.568;13.588;2023-01-08T08:22:40;6.54;95.89
68977;SHT31;56029;52.568;13.588;2023-01-08T08:25:06;6.55;95.94
68977;SHT31;56029;52.568;13.588;2023-01-08T08:27:31;6.61;96.26
68977;SHT31;56029;52.568;13.588;2023-01-08T08:29:57;6.63;96.09
68977;SHT31;56029;52.568;13.588;2023-01-08T08:32:22;6.63;96.23
68977;SHT31;56029;52.568;13.588;2023-01-08T08:34:48;6.65;96.36
68977;SHT31;56029;52.568;13.588;2023-01-08T08:37:15;6.67;96.52
68977;SHT31;56029;52.568;13.588;2023-01-08T08:39:41;6.67;96.59
68977;SHT31;56029;52.568;13.588;2023-01-08T08:42:06;6.68;97.22
68977;SHT31;56029;52.568;13.588;2023-01-08T08:44:32;6.74;97.66
68977;SHT31;56029;52.568;13.588;2023-01-08T08:46:57;6.74;97.61
68977;SHT31;56029;52.568;13.588;2023-01-08T08:49:23;6.75;97.36
68977;SHT31;56029;52.568;13.588;2023-01-08T08:51:48;6.82;97.38
68977;SHT31;56029;52.568;13.588;2023-01-08T08:54:14;6.82;97.30
68977;SHT31;56029;52.568;13.588;2023-01-08T08:56:40;6.87;97.74
68977;SHT31;56029;52.568;13.588;2023-01-08T08:59:05;6.94;97.00
68977;SHT31;56029;52.568;13.588;2023-01-08T09:01:33;6.98;96.94
68977;SHT31;56029;52.568;13.588;2023-01-08T09:03:59;7.01;96.68
68977;SHT31;56029;52.568;13.588;2023-01-08T09:06:24;7.03;96.83
68977;SHT31;56029;52.568;13.588;2023-01-08T09:08:52;7.06;96.82
68977;SHT31;56029;52.568;13.588;2023-01-08T09:11:19;7.08;96.70
68977;SHT31;56029;52.568;13.588;2023-01-08T09:13:45;7.06;96.73
68977;SHT31;56029;52.568;13.588;2023-01-08T09:16:11;7.12;96.66
68977;SHT31;56029;52.568;13.588;2023-01-08T09:18:36;7.09;95.96
68977;SHT31;56029;52.568;13.588;2023-01-08T09:21:06;7.15;96.38
68977;SHT31;56029;52.568;13.588;2023-01-08T09:23:33;7.19;96.39
68977;SHT31;56029;52.568;13.588;2023-01-08T09:26:00;7.23;96.59
68977;SHT31;56029;52.568;13.588;2023-01-08T09:28:26;7.30;96.06
68977;SHT31;56029;52.568;13.588;2023-01-08T09:30:51;7.40;96.17
68977;SHT31;56029;52.568;13.588;2023-01-08T09:33:17;7.34;95.70
68977;SHT31;56029;52.568;13.588;2023-01-08T09:35:43;7.39;96.16
68977;SHT31;56029;52.568;13.588;2023-01-08T09:38:08;7.49;96.02
68977;SHT31;56029;52.568;13.588;2023-01-08T09:40:39;7.49;95.79
68977;SHT31;56029;52.568;13.588;2023-01-08T09:43:07;7.52;95.56
68977;SHT31;56029;52.568;13.588;2023-01-08T09:45:37;7.52;95.93
68977;SHT31;56029;52.568;13.588;2023-01-08T09:48:12;7.56;95.75
68977;SHT31;56029;52.568;13.588;2023-01-08T09:50:38;7.59;96.31
68977;SHT31;56029;52.568;13.588;2023-01-08T09:53:04;7.60;95.73
68977;SHT31;56029;52.568;13.588;2023-01-08T09:55:32;7.56;96.16
68977;SHT31;56029;52.568;13.588;2023-01-08T09:57:59;7.56;96.69
68977;SHT31;56029;52.568;13.588;2023-01-08T10:00:30;7.54;96.75
68977;SHT31;56029;52.568;13.588;2023-01-08T10:02:58;7.54;97.34
68977;SHT31;56029;52.568;13.588;2023-01-08T10:05:25;7.57;97.15
68977;SHT31;56029;52.568;13.588;2023-01-08T10:07:51;7.60;97.03
68977;SHT31;56029;52.568;13.588;2023-01-08T10:10:35;7.56;96.82
68977;SHT31;56029;52.568;13.588;2023-01-08T10:13:01;7.56;96.99
68977;SHT31;56029;52.568;13.588;2023-01-08T10:15:27;7.59;96.81
68977;SHT31;56029;52.568;13.588;2023-01-08T10:18:04;7.56;96.79
68977;SHT31;56029;52.568;13.588;2023-01-08T10:20:31;7.57;97.12
68977;SHT31;56029;52.568;13.588;2023-01-08T10:23:11;7.61;96.37
68977;SHT31;56029;52.568;13.588;2023-01-08T10:25:58;7.60;97.05
68977;SHT31;56029;52.568;13.588;2023-01-08T10:28:31;7.64;96.85
68977;SHT31;56029;52.568;13.588;2023-01-08T10:31:07;7.59;96.62
68977;SHT31;56029;52.568;13.588;2023-01-08T10:33:45;7.63;97.01
68977;SHT31;56029;52.568;13.588;2023-01-08T10:36:14;7.66;97.30
68977;SHT31;56029;52.568;13.588;2023-01-08T10:38:48;7.66;97.31
68977;SHT31;56029;52.568;13.588;2023-01-08T10:41:15;7.71;97.77
68977;SHT31;56029;52.568;13.588;2023-01-08T10:44:03;7.75;97.87
68977;SHT31;56029;52.568;13.588;2023-01-08T10:46:41;7.71;98.14
68977;SHT31;56029;52.568;13.588;2023-01-08T10:51:59;7.75;98.14
68977;SHT31;56029;52.568;13.588;2023-01-08T10:54:32;7.73;98.55
68977;SHT31;56029;52.568;13.588;2023-01-08T10:56:58;7.69;99.15
68977;SHT31;56029;52.568;13.588;2023-01-08T10:59:24;7.70;99.42
68977;SHT31;56029;52.568;13.588;2023-01-08T11:01:52;7.66;99.99
68977;SHT31;56029;52.568;13.588;2023-01-08T11:04:32;7.71;99.65
68977;SHT31;56029;52.568;13.588;2023-01-08T11:07:01;7.75;99.97
68977;SHT31;56029;52.568;13.588;2023-01-08T11:09:33;7.75;99.99
68977;SHT31;56029;52.568;13.588;2023-01-08T11:11:59;7.78;99.99
68977;SHT31;56029;52.568;13.588;2023-01-08T11:14:28;7.80;99.99
68977;SHT31;56029;52.568;13.588;2023-01-08T11:16:55;7.80;99.99
68977;SHT31;56029;52.568;13.588;2023-01-08T11:19:29;7.85;99.99
68977;SHT31;56029;52.568;13.588;2023-01-08T11:22:00;7.82;99.99
68977;SHT31;56029;52.568;13.588;2023-01-08T11:24:31;7.85;99.99
68977;SHT31;56029;52.568;13.588;2023-01-08T11:29:40;7.97;99.99
68977;SHT31;56029;52.568;13.588;2023-01-08T11:37:54;8.12;99.76
68977;SHT31;56029;52.568;13.588;2023-01-08T11:40:32;8.13;99.42
68977;SHT31;56029;52.568;13.588;2023-01-08T11:43:11;8.11;99.50
68977;SHT31;56029;52.568;13.588;2023-01-08T11:45:52;8.15;99.35
68977;SHT31;56029;52.568;13.588;2023-01-08T11:48:42;8.18;98.84
68977;SHT31;56029;52.568;13.588;2023-01-08T11:51:28;8.08;99.41
68977;SHT31;56029;52.568;13.588;2023-01-08T11:56:48;8.08;99.54
68977;SHT31;56029;52.568;13.588;2023-01-08T12:04:48;8.09;99.25
68977;SHT31;56029;52.568;13.588;2023-01-08T12:07:22;8.13;99.24
68977;SHT31;56029;52.568;13.588;2023-01-08T12:10:12;8.21;98.62
68977;SHT31;56029;52.568;13.588;2023-01-08T12:12:48;8.24;98.92
68977;SHT31;56029;52.568;13.588;2023-01-08T12:15:46;8.28;98.94
68977;SHT31;56029;52.568;13.588;2023-01-08T12:18:16;8.36;98.48
68977;SHT31;56029;52.568;13.588;2023-01-08T12:31:34;8.43;97.97
68977;SHT31;56029;52.568;13.588;2023-01-08T12:34:12;8.43;97.43
68977;SHT31;56029;52.568;13.588;2023-01-08T12:36:48;8.46;97.09
68977;SHT31;56029;52.568;13.588;2023-01-08T12:39:31;8.48;97.18
68977;SHT31;56029;52.568;13.588;2023-01-08T12:42:09;8.60;97.03
68977;SHT31;56029;52.568;13.588;2023-01-08T12:44:36;8.57;96.88
68977;SHT31;56029;52.568;13.588;2023-01-08T12:47:03;8.60;97.14
68977;SHT31;56029;52.568;13.588;2023-01-08T12:49:39;8.59;96.67
68977;SHT31;56029;52.568;13.588;2023-01-08T12:52:21;8.59;96.91
68977;SHT31;56029;52.568;13.588;2023-01-08T12:55:32;8.63;96.64
68977;SHT31;56029;52.568;13.588;2023-01-08T12:57:56;8.60;96.15
68977;SHT31;56029;52.568;13.588;2023-01-08T13:00:30;8.61;96.46
68977;SHT31;56029;52.568;13.588;2023-01-08T13:03:01;8.56;96.42
68977;SHT31;56029;52.568;13.588;2023-01-08T13:05:36;8.54;95.82
68977;SHT31;56029;52.568;13.588;2023-01-08T13:10:53;8.50;95.87
68977;SHT31;56029;52.568;13.588;2023-01-08T13:13:30;8.54;96.19
68977;SHT31;56029;52.568;13.588;2023-01-08T13:19:00;8.52;96.32
68977;SHT31;56029;52.568;13.588;2023-01-08T13:21:33;8.50;96.20
68977;SHT31;56029;52.568;13.588;2023-01-08T13:24:01;8.46;95.81
68977;SHT31;56029;52.568;13.588;2023-01-08T13:26:29;8.48;95.92
68977;SHT31;56029;52.568;13.588;2023-01-08T13:29:22;8.48;95.74
68977;SHT31;56029;52.568;13.588;2023-01-08T13:31:48;8.43;95.39
68977;SHT31;56029;52.568;13.588;2023-01-08T13:34:19;8.40;95.71
68977;SHT31;56029;52.568;13.588;2023-01-08T13:36:56;8.40;96.40
68977;SHT31;56029;52.568;13.588;2023-01-08T13:39:23;8.36;96.75
68977;SHT31;56029;52.568;13.588;2023-01-08T13:41:59;8.32;96.53
68977;SHT31;56029;52.568;13.588;2023-01-08T13:44:28;8.29;97.13
68977;SHT31;56029;52.568;13.588;2023-01-08T13:47:03;8.26;97.65
68977;SHT31;56029;52.568;13.588;2023-01-08T13:49:37;8.22;97.59
68977;SHT31;56029;52.568;13.588;2023-01-08T13:52:25;8.18;97.64
68977;SHT31;56029;52.568;13.588;2023-01-08T13:54:52;8.22;97.43
68977;SHT31;56029;52.568;13.588;2023-01-08T13:57:19;8.15;97.86
68977;SHT31;56029;52.568;13.588;2023-01-08T14:00:05;8.08;98.44
68977;SHT31;56029;52.568;13.588;2023-01-08T14:02:43;8.05;98.58
68977;SHT31;56029;52.568;13.588;2023-01-08T14:05:23;8.05;98.86
68977;SHT31;56029;52.568;13.588;2023-01-08T14:07:49;7.99;98.56
68977;SHT31;56029;52.568;13.588;2023-01-08T14:10:16;7.95;98.72
68977;SHT31;56029;52.568;13.588;2023-01-08T14:12:42;7.95;98.99
68977;SHT31;56029;52.568;13.588;2023-01-08T14:15:09;7.95;98.91
68977;SHT31;56029;52.568;13.588;2023-01-08T14:17:42;7.92;98.58
68977;SHT31;56029;52.568;13.588;2023-01-08T14:20:09;7.92;98.69
68977;SHT31;56029;52.568;13.588;2023-01-08T14:22:35;7.90;99.13
68977;SHT31;56029;52.568;13.588;2023-01-08T14:25:05;7.82;99.35
68977;SHT31;56029;52.568;13.588;2023-01-08T14:27:32;7.80;99.13
68977;SHT31;56029;52.568;13.588;2023-01-08T14:29:59;7.81;99.14
68977;SHT31;56029;52.568;13.588;2023-01-08T14:32:27;7.73;99.38
68977;SHT31;56029;52.568;13.588;2023-01-08T14:34:54;7.74;99.24
68977;SHT31;56029;52.568;13.588;2023-01-08T14:37:21;7.71;99.37
68977;SHT31;56029;52.568;13.588;2023-01-08T14:39:46;7.69;99.54
68977;SHT31;56029;52.568;13.588;2023-01-08T14:42:36;7.64;99.99
68977;SHT31;56029;52.568;13.588;2023-01-08T14:45:27;7.60;99.70
68977;SHT31;56029;52.568;13.588;2023-01-08T14:50:41;7.54;99.99
68977;SHT31;56029;52.568;13.588;2023-01-08T14:53:27;7.60;99.79
68977;SHT31;56029;52.568;13.588;2023-01-08T14:55:55;7.54;99.76
68977;SHT31;56029;52.568;13.588;2023-01-08T14:58:25;7.59;99.88
68977;SHT31;56029;52.568;13.588;2023-01-08T15:00:55;7.59;99.99
68977;SHT31;56029;52.568;13.588;2023-01-08T15:05:52;7.56;99.99
68977;SHT31;56029;52.568;13.588;2023-01-08T15:08:23;7.54;99.99
68977;SHT31;56029;52.568;13.588;2023-01-08T15:11:05;7.56;99.99
68977;SHT31;56029;52.568;13.588;2023-01-08T15:13:34;7.59;99.99
68977;SHT31;56029;52.568;13.588;2023-01-08T15:19:04;7.54;99.99
68977;SHT31;56029;52.568;13.588;2023-01-08T15:21:30;7.50;99.99
68977;SHT31;56029;52.568;13.588;2023-01-08T15:23:57;7.49;99.99
68977;SHT31;56029;52.568;13.588;2023-01-08T15:26:24;7.50;99.99
68977;SHT31;56029;52.568;13.588;2023-01-08T15:28:58;7.52;99.99
68977;SHT31;56029;52.568;13.588;2023-01-08T15:31:30;7.50;99.99
68977;SHT31;56029;52.568;13.588;2023-01-08T15:33:57;7.52;99.99
68977;SHT31;56029;52.568;13.588;2023-01-08T15:36:23;7.49;99.99
68977;SHT31;56029;52.568;13.588;2023-01-08T15:38:49;7.49;99.99
68977;SHT31;56029;52.568;13.588;2023-01-08T15:41:21;7.44;99.99
68977;SHT31;56029;52.568;13.588;2023-01-08T15:44:07;7.43;99.99
68977;SHT31;56029;52.568;13.588;2023-01-08T15:46:33;7.42;99.99
68977;SHT31;56029;52.568;13.588;2023-01-08T15:48:59;7.37;99.99
68977;SHT31;56029;52.568;13.588;2023-01-08T15:51:25;7.36;99.99
68977;SHT31;56029;52.568;13.588;2023-01-08T15:53:52;7.37;99.99
68977;SHT31;56029;52.568;13.588;2023-01-08T15:56:18;7.36;99.99
68977;SHT31;56029;52.568;13.588;2023-01-08T15:58:44;7.32;99.99
68977;SHT31;56029;52.568;13.588;2023-01-08T16:01:09;7.30;99.99
68977;SHT31;56029;52.568;13.588;2023-01-08T16:03:35;7.32;99.99
68977;SHT31;56029;52.568;13.588;2023-01-08T16:06:04;7.30;99.99
68977;SHT31;56029;52.568;13.588;2023-01-08T16:08:30;7.29;99.99
68977;SHT31;56029;52.568;13.588;2023-01-08T16:10:56;7.33;99.99
68977;SHT31;56029;52.568;13.588;2023-01-08T16:13:21;7.32;99.99
68977;SHT31;56029;52.568;13.588;2023-01-08T16:15:47;7.36;99.99
68977;SHT31;56029;52.568;13.588;2023-01-08T16:18:13;7.34;99.99
68977;SHT31;56029;52.568;13.588;2023-01-08T16:20:38;7.33;99.99
68977;SHT31;56029;52.568;13.588;2023-01-08T16:23:04;7.34;99.99
68977;SHT31;56029;52.568;13.588;2023-01-08T16:25:30;7.36;99.99
68977;SHT31;56029;52.568;13.588;2023-01-08T16:27:58;7.34;99.99
68977;SHT31;56029;52.568;13.588;2023-01-08T16:30:24;7.33;99.99
68977;SHT31;56029;52.568;13.588;2023-01-08T16:32:51;7.33;99.99
68977;SHT31;56029;52.568;13.588;2023-01-08T16:35:17;7.34;99.99
68977;SHT31;56029;52.568;13.588;2023-01-08T16:37:43;7.36;99.99